Lindenau, Texas
Current Conditions -  °F | °C
As of 11:51 PM on Sunday 19 Oct 2014 (Local Time) from KVCT Reporting Station
Haze Haze  
Wind Chill: 69°   Ceiling: 7500
Heat Index: 69°   Visibility: 4mi
Dew Point: 67°   Wind: 7mph
Humidity: 93%   Direction: 70°ENE
Pressure: 30.03"   Gusts: NA
Location:  29.0941°N, 97.191°W
Report Text: KVCT 200451Z AUTO 07006KT 4SM BR BKN075 21/19 A3003 RMK AO2 SLP166 T02060194
Loading
Personal Weather Stations






























Interactive Weather Map
Tropical Storm Tracking
New forecast layout! Learn more

10-Day Weather Forecast

Advertisements
Track Severe Weather on mobile